createdAt,value
2023-05-01T00:01:44.671Z,13.90
2023-05-01T00:06:46.688Z,11.77
2023-05-01T00:11:48.621Z,10.63
2023-05-01T00:16:50.767Z,8.20
2023-05-01T00:21:53.083Z,7.13
2023-05-01T00:26:55.013Z,5.47
2023-05-01T00:31:56.855Z,5.30
2023-05-01T00:36:59.151Z,5.60
2023-05-01T00:42:02.101Z,5.30
2023-05-01T00:47:04.388Z,5.00
2023-05-01T00:52:06.414Z,4.80
2023-05-01T00:57:09.541Z,5.30
2023-05-01T01:02:12.710Z,4.87
2023-05-01T01:07:44.072Z,5.37
2023-05-01T01:13:22.301Z,4.30
2023-05-01T01:18:52.374Z,4.50
2023-05-01T01:24:44.950Z,4.63
2023-05-01T01:30:48.996Z,4.10
2023-05-01T01:36:10.034Z,4.37
2023-05-01T01:41:31.850Z,5.03
2023-05-01T01:46:41.153Z,4.37
2023-05-01T01:51:47.499Z,4.80
2023-05-01T01:56:51.409Z,4.87
2023-05-01T02:01:56.764Z,5.37
2023-05-01T02:07:01.424Z,4.63
2023-05-01T02:12:08.002Z,5.00
2023-05-01T02:17:11.178Z,5.50
2023-05-01T02:22:17.098Z,4.77
2023-05-01T02:27:33.567Z,4.87
2023-05-01T02:32:35.933Z,4.70
2023-05-01T02:37:39.070Z,5.00
2023-05-01T02:42:45.725Z,4.90
2023-05-01T02:47:56.316Z,5.20
2023-05-01T02:53:00.143Z,4.63
2023-05-01T02:58:02.429Z,4.70
2023-05-01T03:03:04.438Z,5.00
2023-05-01T03:08:06.993Z,4.97
2023-05-01T03:13:11.191Z,5.20
2023-05-01T03:18:13.151Z,4.60
2023-05-01T03:23:14.960Z,4.90
2023-05-01T03:28:17.238Z,5.47
2023-05-01T03:33:19.171Z,4.90
2023-05-01T03:38:21.291Z,4.80
2023-05-01T03:43:23.844Z,5.33
2023-05-01T03:48:25.693Z,4.90
2023-05-01T03:53:27.510Z,3.70
2023-05-01T03:58:29.285Z,5.10
2023-05-01T04:03:31.126Z,4.90
2023-05-01T04:08:32.999Z,4.60
2023-05-01T04:13:34.904Z,4.57
2023-05-01T04:18:36.703Z,5.27
2023-05-01T04:23:38.501Z,4.90
2023-05-01T04:28:40.279Z,4.67
2023-05-01T04:33:42.055Z,4.60
2023-05-01T04:38:44.615Z,4.80
2023-05-01T04:43:46.331Z,4.47
2023-05-01T04:48:48.067Z,4.57
2023-05-01T04:53:49.820Z,4.30
2023-05-01T04:58:51.947Z,4.67
2023-05-01T05:03:53.854Z,5.07
2023-05-01T05:08:57.236Z,4.50
2023-05-01T05:13:59.056Z,4.70
2023-05-01T05:19:01.071Z,3.70
2023-05-01T05:24:02.965Z,4.90
2023-05-01T05:29:04.957Z,4.60
2023-05-01T05:34:06.744Z,4.00
2023-05-01T05:39:08.691Z,4.30
2023-05-01T05:44:11.256Z,4.43
2023-05-01T05:49:13.007Z,3.57
2023-05-01T05:54:14.813Z,4.00
2023-05-01T05:59:17.655Z,4.57
2023-05-01T06:04:19.408Z,3.90
2023-05-01T06:09:21.439Z,4.30
2023-05-01T06:14:23.345Z,4.13
2023-05-01T06:19:25.642Z,3.87
2023-05-01T06:24:28.430Z,3.87
2023-05-01T06:29:30.974Z,4.40
2023-05-01T06:34:32.708Z,4.83
2023-05-01T06:39:34.489Z,4.17
2023-05-01T06:44:36.304Z,3.97
2023-05-01T06:49:38.091Z,3.80
2023-05-01T06:54:39.927Z,4.60
2023-05-01T06:59:41.816Z,4.00
2023-05-01T07:04:44.432Z,4.20
2023-05-01T07:09:46.288Z,4.37
2023-05-01T07:14:48.094Z,3.90
2023-05-01T07:19:50.198Z,3.93
2023-05-01T07:24:52.089Z,3.80
2023-05-01T07:29:58.231Z,3.83
2023-05-01T07:35:00.286Z,3.27
2023-05-01T07:40:02.307Z,3.50
2023-05-01T07:45:05.254Z,3.20
2023-05-01T07:50:12.086Z,3.40
2023-05-01T07:55:14.389Z,3.50
2023-05-01T08:00:17.476Z,4.17
2023-05-01T08:05:19.427Z,4.23
2023-05-01T08:10:21.349Z,3.70
2023-05-01T08:15:24.357Z,2.83
2023-05-01T08:20:26.203Z,4.97
2023-05-01T08:25:28.405Z,3.37
2023-05-01T08:30:31.630Z,3.40
2023-05-01T08:35:33.425Z,3.50
2023-05-01T08:40:38.266Z,3.50
2023-05-01T08:45:42.788Z,3.20
2023-05-01T08:50:47.893Z,3.30
2023-05-01T08:55:52.238Z,3.50
2023-05-01T09:00:56.636Z,2.67
2023-05-01T09:06:02.605Z,2.60
2023-05-01T09:11:04.902Z,2.77
2023-05-01T09:16:07.560Z,3.10
2023-05-01T09:21:10.091Z,2.40
2023-05-01T09:26:12.016Z,2.87
2023-05-01T09:31:30.456Z,3.00
2023-05-01T09:36:34.779Z,2.77
2023-05-01T09:41:52.676Z,3.10
2023-05-01T09:46:54.674Z,2.27
2023-05-01T09:52:11.872Z,3.00
2023-05-01T09:57:13.727Z,2.93
2023-05-01T10:02:30.997Z,2.97
2023-05-01T10:07:34.454Z,3.00
2023-05-01T10:12:37.415Z,3.10
2023-05-01T10:17:43.221Z,2.40
2023-05-01T10:22:45.056Z,3.20
2023-05-01T10:27:48.431Z,2.97
2023-05-01T10:32:51.852Z,2.50
2023-05-01T10:38:06.724Z,3.07
2023-05-01T10:43:28.661Z,3.60
2023-05-01T10:48:54.318Z,3.23
2023-05-01T10:54:14.436Z,5.10
2023-05-01T10:59:16.299Z,3.37
2023-05-01T11:04:23.539Z,3.00
2023-05-01T11:09:51.200Z,3.83
2023-05-01T11:15:03.145Z,3.33
2023-05-01T11:20:08.547Z,3.60
2023-05-01T11:25:30.484Z,2.90
2023-05-01T11:30:40.532Z,3.87
2023-05-01T11:35:43.027Z,4.00
2023-05-01T11:40:45.976Z,3.13
2023-05-01T11:46:02.132Z,3.57
2023-05-01T11:51:15.276Z,3.97
2023-05-01T11:56:27.253Z,3.97
2023-05-01T12:01:39.387Z,4.50
2023-05-01T12:06:47.032Z,3.70
2023-05-01T12:11:52.989Z,3.67
2023-05-01T12:16:55.669Z,3.40
2023-05-01T12:22:10.196Z,3.90
2023-05-01T12:27:12.226Z,3.60
2023-05-01T12:32:16.851Z,3.67
2023-05-01T12:37:18.819Z,3.63
2023-05-01T12:42:21.310Z,3.90
2023-05-01T12:47:23.102Z,4.30
2023-05-01T12:52:28.083Z,4.00
2023-05-01T12:57:29.900Z,4.20
2023-05-01T13:02:34.017Z,4.30
2023-05-01T13:07:39.894Z,4.50
2023-05-01T13:12:46.283Z,4.20
2023-05-01T13:17:48.246Z,5.20
2023-05-01T13:22:50.215Z,5.83
2023-05-01T13:27:53.554Z,4.07
2023-05-01T13:32:55.429Z,4.03
2023-05-01T13:37:57.327Z,5.13
2023-05-01T13:42:59.130Z,4.13
2023-05-01T13:48:03.033Z,4.60
2023-05-01T13:53:07.075Z,4.10
2023-05-01T13:58:08.944Z,3.90
2023-05-01T14:03:12.708Z,4.20
2023-05-01T14:08:15.332Z,4.53
2023-05-01T14:13:19.013Z,4.47
2023-05-01T14:18:21.981Z,3.70
2023-05-01T14:23:24.845Z,4.70
2023-05-01T14:28:26.776Z,4.67
2023-05-01T14:33:28.614Z,5.17
2023-05-01T14:38:38.549Z,5.00
2023-05-01T14:43:44.396Z,5.50
2023-05-01T14:48:46.303Z,5.13
2023-05-01T14:53:48.299Z,5.47
2023-05-01T14:58:50.546Z,5.10
2023-05-01T15:03:53.307Z,5.30
2023-05-01T15:08:55.267Z,4.80
2023-05-01T15:13:57.103Z,4.83
2023-05-01T15:18:58.907Z,5.30
2023-05-01T15:24:00.884Z,4.77
2023-05-01T15:29:02.784Z,5.70
2023-05-01T15:34:04.620Z,5.80
2023-05-01T15:39:11.598Z,5.23
2023-05-01T15:44:14.307Z,5.10
2023-05-01T15:49:16.236Z,4.70
2023-05-01T15:54:18.092Z,5.20
2023-05-01T15:59:19.979Z,4.60
2023-05-01T16:04:21.859Z,6.10
2023-05-01T16:09:31.765Z,22.80
2023-05-01T16:14:43.163Z,5.13
2023-05-01T16:19:45.130Z,5.00
2023-05-01T16:24:46.948Z,5.10
2023-05-01T16:29:48.747Z,5.47
2023-05-01T16:34:50.837Z,4.90
2023-05-01T16:39:52.883Z,4.80
2023-05-01T16:44:56.484Z,4.37
2023-05-01T16:50:00.969Z,5.13
2023-05-01T16:55:03.012Z,5.20
2023-05-01T17:00:08.680Z,5.57
2023-05-01T17:05:11.394Z,5.47
2023-05-01T17:10:13.413Z,5.47
2023-05-01T17:15:15.227Z,6.27
2023-05-01T17:20:17.237Z,7.77
2023-05-01T17:25:19.025Z,7.90
2023-05-01T17:30:20.809Z,5.70
2023-05-01T17:35:22.792Z,7.10
2023-05-01T17:40:24.544Z,9.23
2023-05-01T17:45:26.747Z,5.73
2023-05-01T17:50:28.684Z,6.30
2023-05-01T17:55:30.706Z,5.83
2023-05-01T18:00:33.412Z,5.67
2023-05-01T18:05:35.210Z,5.60
2023-05-01T18:10:37.093Z,7.10
2023-05-01T18:15:38.932Z,7.10
2023-05-01T18:20:40.860Z,6.27
2023-05-01T18:25:42.585Z,7.30
2023-05-01T18:30:44.765Z,7.60
2023-05-01T18:35:46.568Z,8.10
2023-05-01T18:40:48.486Z,10.20
2023-05-01T18:45:50.226Z,8.70
2023-05-01T18:51:07.075Z,7.27
2023-05-01T18:56:10.139Z,7.33
2023-05-01T19:01:11.884Z,7.40
2023-05-01T19:06:14.022Z,8.03
2023-05-01T19:11:15.768Z,7.30
2023-05-01T19:16:17.649Z,6.90
2023-05-01T19:21:19.691Z,6.57
2023-05-01T19:26:21.957Z,8.00
2023-05-01T19:31:25.218Z,15.60
2023-05-01T19:36:27.102Z,9.70
2023-05-01T19:41:28.887Z,8.53
2023-05-01T19:46:30.780Z,7.80
2023-05-01T19:51:32.586Z,8.73
2023-05-01T19:56:34.602Z,8.27
2023-05-01T20:01:38.638Z,8.17
2023-05-01T20:06:40.465Z,8.77
2023-05-01T20:11:42.361Z,7.70
2023-05-01T20:16:44.318Z,8.30
2023-05-01T20:21:46.275Z,8.07
2023-05-01T20:26:50.096Z,8.40
2023-05-01T20:31:51.902Z,7.20
2023-05-01T20:36:53.670Z,8.70
2023-05-01T20:41:56.029Z,8.77
2023-05-01T20:46:58.005Z,9.33
2023-05-01T20:52:00.013Z,9.40
2023-05-01T20:57:02.819Z,8.80
2023-05-01T21:02:05.366Z,10.47
2023-05-01T21:07:08.913Z,7.60
2023-05-01T21:12:10.887Z,9.13
2023-05-01T21:17:14.354Z,8.03
2023-05-01T21:22:23.927Z,8.13
2023-05-01T21:27:27.759Z,6.83
2023-05-01T21:32:34.234Z,7.40
2023-05-01T21:37:37.378Z,8.50
2023-05-01T21:42:40.207Z,7.10
2023-05-01T21:47:50.884Z,8.27
2023-05-01T21:52:52.948Z,8.03
2023-05-01T21:57:55.615Z,7.33
2023-05-01T22:02:57.753Z,8.33
2023-05-01T22:08:00.409Z,7.10
2023-05-01T22:13:02.966Z,6.83
2023-05-01T22:18:04.717Z,5.53
2023-05-01T22:23:07.468Z,5.53
2023-05-01T22:28:09.332Z,7.03
2023-05-01T22:33:11.219Z,6.10
2023-05-01T22:38:13.068Z,6.80
2023-05-01T22:43:15.408Z,6.40
2023-05-01T22:48:17.271Z,6.33
2023-05-01T22:53:19.206Z,6.23
2023-05-01T22:58:21.040Z,6.93
2023-05-01T23:03:23.076Z,5.63
2023-05-01T23:08:25.068Z,5.63
2023-05-01T23:13:28.063Z,6.20
2023-05-01T23:18:33.749Z,5.73
2023-05-01T23:23:37.614Z,5.80
2023-05-01T23:28:43.091Z,5.20
2023-05-01T23:33:44.940Z,4.83
2023-05-01T23:38:47.571Z,5.97
2023-05-01T23:43:49.514Z,5.67
2023-05-01T23:48:51.342Z,6.00
2023-05-01T23:53:53.205Z,5.40
2023-05-01T23:58:54.946Z,5.60
